Time;durP1;ratioP1;P1;durP2;ratioP2;P2;SDS_P1;SDS_P2;PMS_P1;PMS_P2;Temp;Humidity;BMP_temperature;BMP_pressure;BME280_temperature;BME280_humidity;BME280_pressure;Samples;Min_cycle;Max_cycle;Signal;HPM_P1;HPM_P2
2022/09/19 00:01:57;;;;;;;0.60;0.40;;;;;;;;;;5090911;28;20082;-42
2022/09/19 00:04:25;;;;;;;0.90;0.40;;;;;;;;;;5092037;28;20518;-42
2022/09/19 00:06:51;;;;;;;0.40;0.35;;;;;;;;;;5091787;28;20028;-42
2022/09/19 00:09:18;;;;;;;0.95;0.63;;;;;;;;;;5091943;28;20028;-42
2022/09/19 00:11:44;;;;;;;0.95;0.40;;;;;;;;;;5091998;28;20028;-42
2022/09/19 00:14:13;;;;;;;0.40;0.40;;;;;;;;;;5091627;28;20106;-42
2022/09/19 00:16:40;;;;;;;0.93;0.30;;;;;;;;;;5090454;28;20048;-42
2022/09/19 00:19:06;;;;;;;0.50;0.40;;;;;;;;;;5091592;28;20016;-42
2022/09/19 00:21:32;;;;;;;2.17;0.30;;;;;;;;;;5091756;28;20097;-42
2022/09/19 00:26:43;;;;;;;0.47;0.30;;;;;;;;;;5096051;28;20078;-42
2022/09/19 00:29:09;;;;;;;1.90;0.40;;;;;;;;;;5095149;28;20043;-42
2022/09/19 00:31:34;;;;;;;0.40;0.38;;;;;;;;;;5095141;28;20032;-42
2022/09/19 00:34:00;;;;;;;0.40;0.40;;;;;;;;;;5095379;28;20599;-41
2022/09/19 00:36:26;;;;;;;0.60;0.25;;;;;;;;;;5094916;28;20039;-43
2022/09/19 00:38:51;;;;;;;0.57;0.30;;;;;;;;;;5093682;28;20028;-42
2022/09/19 00:41:21;;;;;;;1.55;0.45;;;;;;;;;;5093555;28;20036;-42
2022/09/19 00:43:52;;;;;;;1.13;0.63;;;;;;;;;;5094736;28;20174;-43
2022/09/19 00:46:19;;;;;;;4.40;2.60;;;;;;;;;;5093529;28;20074;-42
2022/09/19 00:48:45;;;;;;;0.43;0.43;;;;;;;;;;5094968;28;20102;-42
2022/09/19 00:51:12;;;;;;;0.35;0.35;;;;;;;;;;5094781;28;20035;-42
2022/09/19 00:53:39;;;;;;;0.30;0.30;;;;;;;;;;5093407;28;20016;-42
2022/09/19 00:56:05;;;;;;;0.38;0.30;;;;;;;;;;5093127;28;20849;-42
2022/09/19 00:58:34;;;;;;;2.15;0.47;;;;;;;;;;5094641;28;20052;-42
2022/09/19 01:01:00;;;;;;;1.50;0.73;;;;;;;;;;5094536;28;20050;-42
2022/09/19 01:03:27;;;;;;;1.55;0.45;;;;;;;;;;5093182;28;20024;-42
2022/09/19 01:06:10;;;;;;;0.65;0.40;;;;;;;;;;5094588;28;20020;-41
2022/09/19 01:08:43;;;;;;;0.55;0.40;;;;;;;;;;5093479;28;20046;-42
2022/09/19 01:11:21;;;;;;;1.52;0.30;;;;;;;;;;5094637;28;20032;-42
2022/09/19 01:14:05;;;;;;;0.65;0.47;;;;;;;;;;5094415;28;20039;-42
2022/09/19 01:16:36;;;;;;;1.48;0.50;;;;;;;;;;5092810;28;20059;-42
2022/09/19 01:19:09;;;;;;;0.20;0.20;;;;;;;;;;5092907;28;20051;-42
2022/09/19 01:21:38;;;;;;;;;;;;;;;;;;5093347;28;20028;-42
2022/09/19 01:24:19;;;;;;;0.50;0.50;;;;;;;;;;5094101;28;19939;-42
2022/09/19 01:26:58;;;;;;;1.20;0.25;;;;;;;;;;5094208;28;20073;-43
2022/09/19 01:29:45;;;;;;;1.10;0.40;;;;;;;;;;5092535;28;20078;-41
2022/09/19 01:32:14;;;;;;;0.45;0.30;;;;;;;;;;5094002;28;20038;-41
2022/09/19 01:34:45;;;;;;;0.22;0.22;;;;;;;;;;5093634;28;20028;-42
2022/09/19 01:37:16;;;;;;;0.50;0.40;;;;;;;;;;5091910;28;20434;-42
2022/09/19 01:39:43;;;;;;;0.40;0.40;;;;;;;;;;5092531;28;20492;-42
2022/09/19 01:42:13;;;;;;;0.28;0.20;;;;;;;;;;5092473;28;20039;-42
2022/09/19 01:44:39;;;;;;;3.53;0.30;;;;;;;;;;5092264;28;20047;-47
2022/09/19 01:47:20;;;;;;;0.70;0.30;;;;;;;;;;5092467;28;20024;-42
2022/09/19 01:49:45;;;;;;;0.50;0.30;;;;;;;;;;5092258;28;20123;-42
2022/09/19 01:52:30;;;;;;;0.30;0.30;;;;;;;;;;5093596;28;20538;-42
2022/09/19 01:54:56;;;;;;;0.40;0.32;;;;;;;;;;5092185;28;20056;-42
2022/09/19 01:58:04;;;;;;;0.30;0.30;;;;;;;;;;5092164;28;20460;-42
2022/09/19 02:00:31;;;;;;;0.22;0.22;;;;;;;;;;5034098;28;20039;-42
2022/09/19 02:02:57;;;;;;;1.38;0.45;;;;;;;;;;5034038;28;20021;-41
2022/09/19 02:05:35;;;;;;;0.40;0.40;;;;;;;;;;5061292;28;20474;-41
2022/09/19 02:08:28;;;;;;;1.08;0.35;;;;;;;;;;5092212;28;20050;-42
2022/09/19 02:11:04;;;;;;;0.32;0.32;;;;;;;;;;5092007;28;20071;-42
2022/09/19 02:13:34;;;;;;;2.05;0.85;;;;;;;;;;5091869;28;20032;-42
2022/09/19 02:16:10;;;;;;;1.45;0.52;;;;;;;;;;5091703;28;20128;-42
2022/09/19 02:18:43;;;;;;;0.20;0.20;;;;;;;;;;5093380;28;20028;-42
2022/09/19 02:21:13;;;;;;;0.45;0.40;;;;;;;;;;5091615;28;20032;-42
2022/09/19 02:23:41;;;;;;;1.40;0.50;;;;;;;;;;5091754;28;20032;-42
2022/09/19 02:26:09;;;;;;;1.75;0.60;;;;;;;;;;5092835;28;20512;-41
2022/09/19 02:28:39;;;;;;;0.52;0.52;;;;;;;;;;5093085;28;20016;-42
2022/09/19 02:31:07;;;;;;;0.77;0.60;;;;;;;;;;5091432;28;20043;-42
2022/09/19 02:33:36;;;;;;;3.60;0.70;;;;;;;;;;5091381;28;20020;-42
2022/09/19 02:36:09;;;;;;;1.10;0.45;;;;;;;;;;5091417;28;20040;-42
2022/09/19 02:38:42;;;;;;;2.95;0.52;;;;;;;;;;5092661;28;20382;-42
2022/09/19 02:41:17;;;;;;;0.30;0.30;;;;;;;;;;5091358;28;20040;-41
2022/09/19 02:44:04;;;;;;;0.52;0.50;;;;;;;;;;5091131;28;20036;-42
2022/09/19 02:46:38;;;;;;;0.32;0.32;;;;;;;;;;5080352;28;20153;-41
2022/09/19 02:49:12;;;;;;;0.30;0.30;;;;;;;;;;5092713;28;20373;-42
2022/09/19 02:51:46;;;;;;;1.02;0.93;;;;;;;;;;5091211;28;20474;-42
2022/09/19 02:54:15;;;;;;;0.57;0.57;;;;;;;;;;5091099;28;20031;-41
2022/09/19 02:56:41;;;;;;;0.57;0.50;;;;;;;;;;5092253;28;20039;-42
2022/09/19 02:59:15;;;;;;;0.25;0.25;;;;;;;;;;5090895;28;20489;-42
2022/09/19 03:01:51;;;;;;;0.30;0.30;;;;;;;;;;5091030;28;20097;-41
2022/09/19 03:04:20;;;;;;;0.50;0.40;;;;;;;;;;5090798;28;20025;-42
2022/09/19 03:07:12;;;;;;;0.30;0.30;;;;;;;;;;5074821;28;20460;-42
2022/09/19 03:09:50;;;;;;;0.40;0.35;;;;;;;;;;5090813;28;20028;-42
2022/09/19 03:12:18;;;;;;;1.80;0.82;;;;;;;;;;5090706;28;20108;-42
2022/09/19 03:14:48;;;;;;;0.70;0.47;;;;;;;;;;5090744;28;20477;-42
2022/09/19 03:17:17;;;;;;;1.75;0.52;;;;;;;;;;5090529;28;20364;-41
2022/09/19 03:19:46;;;;;;;0.55;0.40;;;;;;;;;;5090684;28;20024;-42
2022/09/19 03:22:14;;;;;;;3.30;0.60;;;;;;;;;;5073962;28;20028;-42
2022/09/19 03:24:41;;;;;;;0.43;0.22;;;;;;;;;;5090573;28;20024;-42
2022/09/19 03:27:06;;;;;;;0.40;0.32;;;;;;;;;;5090484;28;20482;-41
2022/09/19 03:29:33;;;;;;;0.40;0.40;;;;;;;;;;5090451;28;20135;-42
2022/09/19 03:31:58;;;;;;;0.38;0.38;;;;;;;;;;5090441;28;20078;-42
2022/09/19 03:34:24;;;;;;;0.50;0.50;;;;;;;;;;5090380;28;20619;-42
2022/09/19 03:36:51;;;;;;;1.63;0.80;;;;;;;;;;5090368;28;20088;-41
2022/09/19 03:39:22;;;;;;;0.50;0.30;;;;;;;;;;5090260;28;20027;-42
2022/09/19 03:41:50;;;;;;;1.38;0.50;;;;;;;;;;5090317;28;20024;-42
2022/09/19 03:44:17;;;;;;;1.17;0.65;;;;;;;;;;5090067;28;20394;-42
2022/09/19 03:46:46;;;;;;;0.47;0.47;;;;;;;;;;5091552;28;20103;-42
2022/09/19 03:49:11;;;;;;;0.80;0.52;;;;;;;;;;5090174;28;20030;-42
2022/09/19 03:51:37;;;;;;;0.40;0.40;;;;;;;;;;5090241;28;20032;-42
2022/09/19 03:54:03;;;;;;;0.40;0.40;;;;;;;;;;5090178;28;20030;-41
2022/09/19 03:56:37;;;;;;;0.43;0.43;;;;;;;;;;5090189;28;20097;-42
2022/09/19 03:59:05;;;;;;;0.65;0.40;;;;;;;;;;5089443;28;20028;-42
2022/09/19 04:01:31;;;;;;;0.77;0.70;;;;;;;;;;5073590;28;20032;-42
2022/09/19 04:03:58;;;;;;;2.10;0.70;;;;;;;;;;5090140;28;20043;-42
2022/09/19 04:06:23;;;;;;;0.68;0.68;;;;;;;;;;5090033;28;20062;-42
2022/09/19 04:08:49;;;;;;;0.85;0.50;;;;;;;;;;5090013;28;20119;-42
2022/09/19 04:11:14;;;;;;;1.65;0.93;;;;;;;;;;5089894;28;20028;-42
2022/09/19 04:13:40;;;;;;;0.55;0.43;;;;;;;;;;5090050;28;20024;-42
2022/09/19 04:16:15;;;;;;;0.35;0.32;;;;;;;;;;5091070;28;20073;-42
2022/09/19 04:18:46;;;;;;;0.47;0.47;;;;;;;;;;5089956;28;20111;-42
2022/09/19 04:21:16;;;;;;;1.80;0.52;;;;;;;;;;5089814;28;20067;-42
2022/09/19 04:24:00;;;;;;;0.68;0.68;;;;;;;;;;5091590;28;20047;-42
2022/09/19 04:27:02;;;;;;;1.08;0.75;;;;;;;;;;5048616;28;20045;-42
2022/09/19 04:29:28;;;;;;;0.55;0.40;;;;;;;;;;5082556;28;20479;-42
2022/09/19 04:31:54;;;;;;;1.20;0.50;;;;;;;;;;5089793;28;20035;-42
2022/09/19 04:34:20;;;;;;;0.60;0.60;;;;;;;;;;5091285;28;20028;-41
2022/09/19 04:36:50;;;;;;;1.75;0.65;;;;;;;;;;5089707;28;20054;-41
2022/09/19 04:39:15;;;;;;;0.60;0.60;;;;;;;;;;5089658;28;20052;-41
2022/09/19 04:41:42;;;;;;;1.50;0.70;;;;;;;;;;5089774;28;20066;-42
2022/09/19 04:44:10;;;;;;;0.90;0.50;;;;;;;;;;5089466;28;20077;-41
2022/09/19 04:47:06;;;;;;;0.65;0.50;;;;;;;;;;5091030;28;20032;-41
2022/09/19 04:49:36;;;;;;;0.50;0.47;;;;;;;;;;5089515;28;20047;-42
2022/09/19 04:52:02;;;;;;;0.43;0.43;;;;;;;;;;5072753;28;20041;-41
2022/09/19 04:54:29;;;;;;;0.30;0.30;;;;;;;;;;5089678;28;20032;-41
2022/09/19 04:56:55;;;;;;;0.45;0.45;;;;;;;;;;5089491;28;20032;-41
2022/09/19 04:59:20;;;;;;;1.08;0.50;;;;;;;;;;5089517;28;20481;-42
2022/09/19 05:01:46;;;;;;;1.73;0.70;;;;;;;;;;5090831;28;20027;-42
2022/09/19 05:04:16;;;;;;;1.75;0.60;;;;;;;;;;5090883;28;20107;-42
2022/09/19 05:06:42;;;;;;;1.50;0.82;;;;;;;;;;5090852;28;20036;-42
2022/09/19 05:09:12;;;;;;;0.50;0.50;;;;;;;;;;5089375;28;20389;-43
2022/09/19 05:11:57;;;;;;;1.60;0.52;;;;;;;;;;5093279;28;20043;-42
2022/09/19 05:14:23;;;;;;;0.60;0.60;;;;;;;;;;5094248;28;20024;-42
2022/09/19 05:16:54;;;;;;;0.65;0.57;;;;;;;;;;5092937;28;20161;-41
2022/09/19 05:19:22;;;;;;;0.60;0.60;;;;;;;;;;5094124;28;20430;-42
2022/09/19 05:21:48;;;;;;;0.93;0.30;;;;;;;;;;5093019;28;20506;-43
2022/09/19 05:24:15;;;;;;;0.45;0.45;;;;;;;;;;5092731;28;20050;-41
2022/09/19 05:26:40;;;;;;;1.30;0.47;;;;;;;;;;5092897;28;20031;-42
2022/09/19 05:29:14;;;;;;;3.17;0.90;;;;;;;;;;5092705;28;20024;-42
2022/09/19 05:31:54;;;;;;;1.35;0.50;;;;;;;;;;5092735;28;20127;-41
2022/09/19 05:34:33;;;;;;;0.50;0.40;;;;;;;;;;5092709;28;20406;-41
2022/09/19 05:36:59;;;;;;;0.82;0.60;;;;;;;;;;5092606;28;20057;-41
2022/09/19 05:39:43;;;;;;;0.50;0.40;;;;;;;;;;5093054;28;20390;-42
2022/09/19 05:42:38;;;;;;;0.50;0.50;;;;;;;;;;5084475;28;20088;-42
2022/09/19 05:45:04;;;;;;;1.90;0.47;;;;;;;;;;5092347;28;20044;-41
2022/09/19 05:47:29;;;;;;;4.20;0.75;;;;;;;;;;5093842;28;20032;-42
2022/09/19 05:49:56;;;;;;;0.90;0.77;;;;;;;;;;5092318;28;20032;-42
2022/09/19 05:55:08;;;;;;;0.68;0.65;;;;;;;;;;5092210;28;20028;-41
2022/09/19 05:57:40;;;;;;;1.08;0.60;;;;;;;;;;5092262;28;20039;-42
2022/09/19 06:00:07;;;;;;;1.52;0.50;;;;;;;;;;5092107;28;20028;-42
2022/09/19 06:02:38;;;;;;;2.88;0.50;;;;;;;;;;5093529;28;20024;-42
2022/09/19 06:05:05;;;;;;;0.73;0.57;;;;;;;;;;5092074;28;20378;-42
2022/09/19 06:07:31;;;;;;;0.82;0.52;;;;;;;;;;5091929;28;20034;-41
2022/09/19 06:09:58;;;;;;;0.68;0.68;;;;;;;;;;5091976;28;20474;-41
2022/09/19 06:12:25;;;;;;;1.27;0.70;;;;;;;;;;5091895;28;20043;-42
2022/09/19 06:14:52;;;;;;;1.25;0.73;;;;;;;;;;5091763;28;20024;-42
2022/09/19 06:17:19;;;;;;;0.63;0.50;;;;;;;;;;5091658;28;20477;-41
2022/09/19 06:20:09;;;;;;;1.10;0.63;;;;;;;;;;5091751;28;20104;-43
2022/09/19 06:22:43;;;;;;;1.25;0.60;;;;;;;;;;5092511;28;20467;-42
2022/09/19 06:25:11;;;;;;;1.45;0.90;;;;;;;;;;5091644;28;20030;-42
2022/09/19 06:27:37;;;;;;;0.63;0.40;;;;;;;;;;5092965;28;20505;-42
2022/09/19 06:30:04;;;;;;;0.50;0.50;;;;;;;;;;5093112;28;20024;-42
2022/09/19 06:32:49;;;;;;;1.20;0.60;;;;;;;;;;5091643;28;20032;-42
2022/09/19 06:35:17;;;;;;;8.65;1.15;;;;;;;;;;5091301;28;20417;-42
2022/09/19 06:37:44;;;;;;;0.60;0.60;;;;;;;;;;5091384;28;20070;-42
2022/09/19 06:40:10;;;;;;;0.88;0.88;;;;;;;;;;5091413;28;20085;-41
2022/09/19 06:42:46;;;;;;;0.45;0.45;;;;;;;;;;5092667;28;20055;-42
2022/09/19 06:45:38;;;;;;;2.55;0.68;;;;;;;;;;5092428;28;20048;-41
2022/09/19 06:48:22;;;;;;;0.95;0.60;;;;;;;;;;5092509;28;20085;-42
2022/09/19 06:51:01;;;;;;;2.47;0.70;;;;;;;;;;5091160;28;20607;-42
2022/09/19 06:53:27;;;;;;;1.30;1.05;;;;;;;;;;5091116;28;20028;-42
2022/09/19 06:55:57;;;;;;;1.42;1.02;;;;;;;;;;5091010;28;20050;-42
2022/09/19 06:58:26;;;;;;;4.38;1.63;;;;;;;;;;5092560;28;20385;-42
2022/09/19 07:00:53;;;;;;;2.28;1.17;;;;;;;;;;5090994;28;20041;-42
2022/09/19 07:03:19;;;;;;;1.80;0.75;;;;;;;;;;5090879;28;20588;-41
2022/09/19 07:05:52;;;;;;;1.02;0.70;;;;;;;;;;5090937;28;20023;-42
2022/09/19 07:08:23;;;;;;;4.38;1.08;;;;;;;;;;5090721;28;20032;-42
2022/09/19 07:10:49;;;;;;;0.90;0.82;;;;;;;;;;5090803;28;20020;-42
2022/09/19 07:13:16;;;;;;;0.38;0.32;;;;;;;;;;5090612;28;20032;-42
2022/09/19 07:15:45;;;;;;;1.10;1.05;;;;;;;;;;5090671;28;20028;-42
2022/09/19 07:18:12;;;;;;;1.15;0.88;;;;;;;;;;5090493;28;20030;-42
2022/09/19 07:20:39;;;;;;;1.13;0.80;;;;;;;;;;5090635;28;20028;-42
2022/09/19 07:23:19;;;;;;;0.80;0.55;;;;;;;;;;5091923;28;20352;-42
2022/09/19 07:25:56;;;;;;;2.00;0.77;;;;;;;;;;5091955;28;20028;-42
2022/09/19 07:28:23;;;;;;;0.70;0.57;;;;;;;;;;5090447;28;20027;-42
2022/09/19 07:30:50;;;;;;;0.70;0.70;;;;;;;;;;5090590;28;20020;-42
2022/09/19 07:33:17;;;;;;;2.30;0.50;;;;;;;;;;5089629;28;20055;-42
2022/09/19 07:35:43;;;;;;;0.50;0.30;;;;;;;;;;5090322;28;20401;-42
2022/09/19 07:38:10;;;;;;;0.88;0.68;;;;;;;;;;5090463;28;20111;-42
2022/09/19 07:40:56;;;;;;;0.90;0.40;;;;;;;;;;5073744;28;20397;-42
2022/09/19 07:43:28;;;;;;;1.45;0.80;;;;;;;;;;5090179;28;20382;-42
2022/09/19 07:46:10;;;;;;;0.65;0.65;;;;;;;;;;5092026;28;20040;-42
2022/09/19 07:48:42;;;;;;;1.15;0.50;;;;;;;;;;5090129;28;20551;-42
2022/09/19 07:51:32;;;;;;;0.80;0.60;;;;;;;;;;5090168;28;20118;-42
2022/09/19 07:53:59;;;;;;;0.60;0.50;;;;;;;;;;5090104;28;20043;-42
2022/09/19 07:56:25;;;;;;;0.90;0.73;;;;;;;;;;5090008;28;20032;-42
2022/09/19 07:58:53;;;;;;;0.80;0.50;;;;;;;;;;5090015;28;20114;-42
2022/09/19 08:01:18;;;;;;;0.38;0.38;;;;;;;;;;5091385;28;20525;-42
2022/09/19 08:04:13;;;;;;;0.88;0.70;;;;;;;;;;5081958;28;20478;-42
2022/09/19 08:06:49;;;;;;;1.08;0.90;;;;;;;;;;5090118;28;20097;-42
2022/09/19 08:09:17;;;;;;;0.38;0.38;;;;;;;;;;5089803;28;20020;-42
2022/09/19 08:12:22;;;;;;;1.17;0.40;;;;;;;;;;5072079;28;20662;-42
2022/09/19 08:14:56;;;;;;;0.40;0.40;;;;;;;;;;5089938;28;20078;-41
2022/09/19 08:17:24;;;;;;;0.38;0.30;;;;;;;;;;5089812;28;20059;-41
2022/09/19 08:19:50;;;;;;;0.82;0.40;;;;;;;;;;5089977;28;20038;-42
2022/09/19 08:22:16;;;;;;;1.00;1.00;;;;;;;;;;5089787;28;20028;-41
2022/09/19 08:24:52;;;;;;;0.43;0.35;;;;;;;;;;5091202;28;20028;-42
2022/09/19 08:27:18;;;;;;;0.40;0.40;;;;;;;;;;5089785;28;20027;-42
2022/09/19 08:29:43;;;;;;;0.68;0.68;;;;;;;;;;5091113;28;20078;-42
2022/09/19 08:32:13;;;;;;;0.45;0.40;;;;;;;;;;5089890;28;20070;-42
2022/09/19 08:34:38;;;;;;;0.80;0.68;;;;;;;;;;5089683;28;20051;-42
2022/09/19 08:37:04;;;;;;;0.28;0.28;;;;;;;;;;5089746;28;20039;-42
2022/09/19 08:39:33;;;;;;;0.25;0.25;;;;;;;;;;5089628;28;20031;-42
2022/09/19 08:42:10;;;;;;;0.45;0.40;;;;;;;;;;5089879;28;20028;-42
2022/09/19 08:44:39;;;;;;;2.78;0.50;;;;;;;;;;5090124;28;20074;-42
2022/09/19 08:47:18;;;;;;;0.50;0.30;;;;;;;;;;5093633;28;20031;-42
2022/09/19 08:49:53;;;;;;;0.70;0.50;;;;;;;;;;5093609;28;20032;-42
2022/09/19 08:52:27;;;;;;;0.25;0.20;;;;;;;;;;5093449;28;20020;-42
2022/09/19 08:54:54;;;;;;;0.95;0.68;;;;;;;;;;5093407;28;20079;-42
2022/09/19 08:57:26;;;;;;;0.43;0.20;;;;;;;;;;5093277;28;20478;-42
2022/09/19 09:00:05;;;;;;;0.22;0.22;;;;;;;;;;5093345;28;20141;-42
2022/09/19 09:02:49;;;;;;;0.43;0.30;;;;;;;;;;5093328;28;20028;-42
2022/09/19 09:05:17;;;;;;;0.93;0.50;;;;;;;;;;5094417;28;20042;-42
2022/09/19 09:07:46;;;;;;;0.38;0.30;;;;;;;;;;5093203;28;20458;-42
2022/09/19 09:10:47;;;;;;;;;;;;;;;;;;5052346;28;20082;-42
2022/09/19 09:13:16;;;;;;;0.28;0.25;;;;;;;;;;5080065;28;19912;-42
2022/09/19 09:15:42;;;;;;;0.20;0.20;;;;;;;;;;5094308;28;20076;-42
2022/09/19 09:18:14;;;;;;;0.25;0.17;;;;;;;;;;5093001;28;20028;-42
2022/09/19 09:20:59;;;;;;;0.98;0.13;;;;;;;;;;5092958;28;20390;-42
2022/09/19 09:23:41;;;;;;;0.40;0.32;;;;;;;;;;5092816;28;20475;-42
2022/09/19 09:26:28;;;;;;;0.15;0.15;;;;;;;;;;5093594;28;20075;-42
2022/09/19 09:29:08;;;;;;;0.20;0.10;;;;;;;;;;5092851;28;20036;-42
2022/09/19 09:32:15;;;;;;;0.13;0.10;;;;;;;;;;5086505;28;20738;-42
2022/09/19 09:34:58;;;;;;;0.20;0.20;;;;;;;;;;5092549;28;20478;-42
2022/09/19 09:37:43;;;;;;;0.30;0.30;;;;;;;;;;5092591;28;20130;-42
2022/09/19 09:40:12;;;;;;;1.00;0.17;;;;;;;;;;5092630;28;20024;-42
2022/09/19 09:42:41;;;;;;;0.40;0.30;;;;;;;;;;5092359;28;20077;-41
2022/09/19 09:45:10;;;;;;;0.30;0.20;;;;;;;;;;5092371;28;20112;-42
2022/09/19 09:47:43;;;;;;;0.03;0.03;;;;;;;;;;5092304;28;20035;-42
2022/09/19 09:50:34;;;;;;;0.10;0.10;;;;;;;;;;5092388;28;20020;-42
2022/09/19 09:53:11;;;;;;;0.10;0.10;;;;;;;;;;5084425;28;20036;-42
2022/09/19 09:56:15;;;;;;;0.22;0.10;;;;;;;;;;5075489;28;20028;-42
2022/09/19 09:58:41;;;;;;;0.00;0.00;;;;;;;;;;5092309;28;20051;-42
2022/09/19 10:04:03;;;;;;;0.10;0.10;;;;;;;;;;5093344;28;20049;-42
2022/09/19 10:06:38;;;;;;;0.10;0.10;;;;;;;;;;5092098;28;20501;-42
2022/09/19 10:09:19;;;;;;;0.25;0.10;;;;;;;;;;5091724;28;20035;-42
2022/09/19 10:11:56;;;;;;;0.10;0.10;;;;;;;;;;5091994;28;20028;-42
2022/09/19 10:14:28;;;;;;;0.17;0.10;;;;;;;;;;5091781;28;20798;-42
2022/09/19 10:17:06;;;;;;;;;;;;;;;;;;5092082;28;20048;-42
2022/09/19 10:19:40;;;;;;;0.03;0.03;;;;;;;;;;5091940;28;19908;-42
2022/09/19 10:22:14;;;;;;;0.00;0.00;;;;;;;;;;5091820;28;20081;-42
2022/09/19 10:24:47;;;;;;;0.10;0.10;;;;;;;;;;5092019;28;20105;-42
2022/09/19 10:27:38;;;;;;;0.10;0.10;;;;;;;;;;5091631;28;20050;-42
2022/09/19 10:30:25;;;;;;;0.10;0.10;;;;;;;;;;5091533;28;20043;-42
2022/09/19 10:32:53;;;;;;;0.10;0.10;;;;;;;;;;5091652;28;20550;-42
2022/09/19 10:35:45;;;;;;;0.20;0.20;;;;;;;;;;5090527;28;20048;-42
2022/09/19 10:38:14;;;;;;;0.10;0.10;;;;;;;;;;5091285;28;20367;-42
2022/09/19 10:40:57;;;;;;;0.00;0.00;;;;;;;;;;5092780;28;20547;-42
2022/09/19 10:43:40;;;;;;;0.20;0.10;;;;;;;;;;5091172;28;20036;-43
2022/09/19 10:46:07;;;;;;;0.10;0.10;;;;;;;;;;5091233;28;20048;-42
2022/09/19 10:48:36;;;;;;;0.10;0.10;;;;;;;;;;5091162;28;20032;-42
2022/09/19 10:51:08;;;;;;;0.28;0.20;;;;;;;;;;5091281;28;20072;-42
2022/09/19 10:53:35;;;;;;;0.00;0.00;;;;;;;;;;5091119;28;20028;-42
2022/09/19 10:56:07;;;;;;;0.10;0.10;;;;;;;;;;5091041;28;20035;-42
2022/09/19 10:58:39;;;;;;;0.10;0.10;;;;;;;;;;5074166;28;20028;-42
2022/09/19 11:01:21;;;;;;;0.10;0.10;;;;;;;;;;5090954;28;20075;-42
2022/09/19 11:03:58;;;;;;;0.10;0.10;;;;;;;;;;5090995;28;20535;-42
2022/09/19 11:06:24;;;;;;;0.10;0.10;;;;;;;;;;5092211;28;20081;-42
2022/09/19 11:08:53;;;;;;;0.10;0.10;;;;;;;;;;5090810;28;20027;-42
2022/09/19 11:11:26;;;;;;;0.10;0.10;;;;;;;;;;5090834;28;20504;-42
2022/09/19 11:14:11;;;;;;;0.10;0.10;;;;;;;;;;5090782;28;20032;-42
2022/09/19 11:16:40;;;;;;;0.40;0.17;;;;;;;;;;5092041;28;20040;-42
2022/09/19 11:19:17;;;;;;;0.10;0.10;;;;;;;;;;5091966;28;20019;-42
2022/09/19 11:21:44;;;;;;;0.63;0.10;;;;;;;;;;5090728;28;20039;-42
2022/09/19 11:24:13;;;;;;;0.03;0.03;;;;;;;;;;5090691;28;20421;-42
2022/09/19 11:27:06;;;;;;;3.72;0.20;;;;;;;;;;5091939;28;20024;-42
2022/09/19 11:29:32;;;;;;;0.47;0.17;;;;;;;;;;5067614;28;20202;-42
2022/09/19 11:32:03;;;;;;;0.10;0.10;;;;;;;;;;5090562;28;20473;-42
2022/09/19 11:34:30;;;;;;;0.20;0.20;;;;;;;;;;5090612;28;20066;-42
2022/09/19 11:37:22;;;;;;;0.22;0.10;;;;;;;;;;5090400;28;20478;-42
2022/09/19 11:40:07;;;;;;;0.50;0.25;;;;;;;;;;5090346;28;20028;-42
2022/09/19 11:42:35;;;;;;;0.08;0.08;;;;;;;;;;5091464;28;20550;-42
2022/09/19 11:45:13;;;;;;;2.63;0.10;;;;;;;;;;5090238;28;20118;-42
2022/09/19 11:47:46;;;;;;;;;;;;;;;;;;5074668;28;20038;-42
2022/09/19 11:50:25;;;;;;;0.73;0.32;;;;;;;;;;5090550;28;19924;-42
2022/09/19 11:53:10;;;;;;;0.10;0.10;;;;;;;;;;5090234;28;20071;-42
2022/09/19 11:55:58;;;;;;;0.28;0.15;;;;;;;;;;5090026;28;20371;-42
2022/09/19 11:58:35;;;;;;;0.10;0.10;;;;;;;;;;5090027;28;20055;-42
2022/09/19 12:01:05;;;;;;;0.50;0.13;;;;;;;;;;5090125;28;20109;-42
2022/09/19 12:03:52;;;;;;;0.10;0.10;;;;;;;;;;5090090;28;20043;-42
2022/09/19 12:06:31;;;;;;;0.20;0.15;;;;;;;;;;5090088;28;20046;-42
2022/09/19 12:09:09;;;;;;;0.20;0.20;;;;;;;;;;5090088;28;20123;-42
2022/09/19 12:12:11;;;;;;;0.13;0.13;;;;;;;;;;5089943;28;20052;-42
2022/09/19 12:14:55;;;;;;;0.10;0.10;;;;;;;;;;5048462;28;20537;-42
2022/09/19 12:17:27;;;;;;;0.20;0.20;;;;;;;;;;5085831;28;20119;-42
2022/09/19 12:20:12;;;;;;;0.20;0.20;;;;;;;;;;5091599;28;20042;-42
2022/09/19 12:22:40;;;;;;;0.05;0.05;;;;;;;;;;5095339;28;20034;-42
2022/09/19 12:25:18;;;;;;;0.10;0.10;;;;;;;;;;5094019;28;20023;-42
2022/09/19 12:27:48;;;;;;;0.00;0.00;;;;;;;;;;5095600;28;20024;-42
2022/09/19 12:30:14;;;;;;;0.08;0.08;;;;;;;;;;5093958;28;20089;-42
2022/09/19 12:32:47;;;;;;;0.20;0.20;;;;;;;;;;5093859;28;20089;-42
2022/09/19 12:35:34;;;;;;;0.35;0.17;;;;;;;;;;5093779;28;20024;-42
2022/09/19 12:38:01;;;;;;;;;;;;;;;;;;5094344;28;20093;-42
2022/09/19 12:40:39;;;;;;;0.65;0.20;;;;;;;;;;5093610;28;20354;-42
2022/09/19 12:43:23;;;;;;;0.20;0.20;;;;;;;;;;5077214;28;20044;-42
2022/09/19 12:46:10;;;;;;;0.57;0.30;;;;;;;;;;5093504;28;20089;-42
2022/09/19 12:49:02;;;;;;;0.10;0.10;;;;;;;;;;5093561;28;20043;-42
2022/09/19 12:51:44;;;;;;;0.10;0.10;;;;;;;;;;5094835;28;20183;-43
2022/09/19 12:54:16;;;;;;;0.10;0.10;;;;;;;;;;5094761;28;20038;-42
2022/09/19 12:56:50;;;;;;;0.10;0.10;;;;;;;;;;5094682;28;20062;-42
2022/09/19 12:59:25;;;;;;;0.20;0.20;;;;;;;;;;5094756;28;20020;-43
2022/09/19 13:01:57;;;;;;;0.10;0.10;;;;;;;;;;5094561;28;20047;-42
2022/09/19 13:04:41;;;;;;;0.10;0.10;;;;;;;;;;5094571;28;20498;-42
2022/09/19 13:07:11;;;;;;;0.20;0.20;;;;;;;;;;5094437;28;20367;-42
2022/09/19 13:10:00;;;;;;;0.65;0.15;;;;;;;;;;5094716;28;20070;-42
2022/09/19 13:12:28;;;;;;;0.10;0.10;;;;;;;;;;5094458;28;20021;-42
2022/09/19 13:14:56;;;;;;;0.57;0.20;;;;;;;;;;5094361;28;20016;-43
2022/09/19 13:26:19;;;;;;;0.10;0.10;;;;;;;;;;5070905;28;20077;-42
2022/09/19 13:28:53;;;;;;;5.43;0.30;;;;;;;;;;5093062;28;20031;-42
2022/09/19 13:31:22;;;;;;;0.73;0.10;;;;;;;;;;5093080;28;20432;-46
2022/09/19 13:33:49;;;;;;;0.10;0.10;;;;;;;;;;5094022;28;20028;-42
2022/09/19 13:36:16;;;;;;;0.25;0.10;;;;;;;;;;5094094;28;20098;-42
2022/09/19 13:38:55;;;;;;;0.10;0.10;;;;;;;;;;5093971;28;20027;-42
2022/09/19 13:41:42;;;;;;;0.05;0.05;;;;;;;;;;5094166;28;20382;-42
2022/09/19 13:44:08;;;;;;;0.00;0.00;;;;;;;;;;5093725;28;20051;-42
2022/09/19 13:46:58;;;;;;;0.10;0.10;;;;;;;;;;5093730;28;20062;-43
2022/09/19 13:49:30;;;;;;;0.20;0.20;;;;;;;;;;5093639;28;20115;-42
2022/09/19 13:51:57;;;;;;;0.10;0.10;;;;;;;;;;5093582;28;20432;-42
2022/09/19 13:54:26;;;;;;;1.65;0.40;;;;;;;;;;5093602;28;20055;-42
2022/09/19 13:56:58;;;;;;;0.10;0.10;;;;;;;;;;5093336;28;20123;-42
2022/09/19 13:59:29;;;;;;;0.55;0.20;;;;;;;;;;5093805;28;20076;-42
2022/09/19 14:01:57;;;;;;;0.20;0.10;;;;;;;;;;5093775;28;20032;-42
2022/09/19 14:07:17;;;;;;;0.10;0.10;;;;;;;;;;5093347;28;20034;-42
2022/09/19 14:09:44;;;;;;;0.10;0.10;;;;;;;;;;5093405;28;20036;-42
2022/09/19 14:12:28;;;;;;;0.10;0.10;;;;;;;;;;5093211;28;20024;-42
2022/09/19 14:14:54;;;;;;;0.15;0.15;;;;;;;;;;5091991;28;20028;-43
2022/09/19 14:17:20;;;;;;;0.10;0.10;;;;;;;;;;5093019;28;20462;-42
2022/09/19 14:19:47;;;;;;;0.43;0.10;;;;;;;;;;5093137;28;20708;-43
2022/09/19 14:22:37;;;;;;;0.20;0.20;;;;;;;;;;5091807;28;20388;-42
2022/09/19 14:25:13;;;;;;;3.10;0.17;;;;;;;;;;5093310;28;20059;-42
2022/09/19 14:27:47;;;;;;;0.40;0.10;;;;;;;;;;5093061;28;20032;-42
2022/09/19 14:30:21;;;;;;;0.00;0.00;;;;;;;;;;5092952;28;20027;-42
2022/09/19 14:32:47;;;;;;;1.85;0.10;;;;;;;;;;5092862;28;20031;-42
2022/09/19 14:35:16;;;;;;;0.10;0.10;;;;;;;;;;5092806;28;20020;-42
2022/09/19 14:37:50;;;;;;;0.20;0.10;;;;;;;;;;5092994;28;20480;-43
2022/09/19 14:40:36;;;;;;;0.25;0.10;;;;;;;;;;5092852;28;20035;-42
2022/09/19 14:43:10;;;;;;;0.10;0.10;;;;;;;;;;5092388;28;20035;-42
2022/09/19 14:45:46;;;;;;;2.35;0.22;;;;;;;;;;5091131;28;20048;-42
2022/09/19 14:48:15;;;;;;;0.32;0.25;;;;;;;;;;5092142;28;20119;-42
2022/09/19 14:50:51;;;;;;;0.10;0.10;;;;;;;;;;5092893;28;20028;-42
2022/09/19 14:53:35;;;;;;;0.10;0.10;;;;;;;;;;5092580;28;20102;-42
2022/09/19 14:56:22;;;;;;;0.10;0.10;;;;;;;;;;5092431;28;20725;-42
2022/09/19 14:58:49;;;;;;;2.17;0.22;;;;;;;;;;5092363;28;20651;-42
2022/09/19 15:01:27;;;;;;;0.13;0.10;;;;;;;;;;5092551;28;20028;-42
2022/09/19 15:04:02;;;;;;;0.10;0.10;;;;;;;;;;5091027;28;20489;-42
2022/09/19 15:06:30;;;;;;;0.00;0.00;;;;;;;;;;5092497;28;20032;-42
2022/09/19 15:08:56;;;;;;;3.10;0.17;;;;;;;;;;5092448;28;20428;-42
2022/09/19 15:11:22;;;;;;;0.20;0.20;;;;;;;;;;5092115;28;20032;-42
2022/09/19 15:13:49;;;;;;;0.10;0.10;;;;;;;;;;5092071;28;20027;-42
2022/09/19 15:16:16;;;;;;;0.10;0.10;;;;;;;;;;5091858;28;20067;-42
2022/09/19 15:18:44;;;;;;;0.10;0.10;;;;;;;;;;5092051;28;20103;-42
2022/09/19 15:21:22;;;;;;;0.03;0.03;;;;;;;;;;5090781;28;20028;-42
2022/09/19 15:23:48;;;;;;;0.63;0.10;;;;;;;;;;5092294;28;20425;-42
2022/09/19 15:26:16;;;;;;;0.10;0.10;;;;;;;;;;5091956;28;20458;-42
2022/09/19 15:28:53;;;;;;;0.10;0.10;;;;;;;;;;5091927;28;20028;-42
2022/09/19 15:31:21;;;;;;;0.10;0.10;;;;;;;;;;5091762;28;20060;-42
2022/09/19 15:33:49;;;;;;;0.22;0.10;;;;;;;;;;5091821;28;20044;-42
2022/09/19 15:36:17;;;;;;;0.03;0.03;;;;;;;;;;5090379;28;20043;-42
2022/09/19 15:38:42;;;;;;;0.03;0.03;;;;;;;;;;5091695;28;20020;-42
2022/09/19 15:41:09;;;;;;;0.57;0.13;;;;;;;;;;5091820;28;20420;-42